createdAt,value
2022-09-03T00:04:47.005Z,43.28
2022-09-03T00:09:55.891Z,43.40
2022-09-03T00:15:15.128Z,43.81
2022-09-03T00:20:42.605Z,44.76
2022-09-03T00:26:01.788Z,44.92
2022-09-03T00:31:36.931Z,47.23
2022-09-03T00:36:42.621Z,46.62
2022-09-03T00:42:10.132Z,46.90
2022-09-03T00:47:14.073Z,47.21
2022-09-03T00:52:24.837Z,47.91
2022-09-03T00:57:42.036Z,47.80
2022-09-03T01:02:58.843Z,47.16
2022-09-03T01:08:32.335Z,47.86
2022-09-03T01:14:06.446Z,47.90
2022-09-03T01:19:30.300Z,48.56
2022-09-03T01:24:34.474Z,48.62
2022-09-03T01:30:04.133Z,48.66
2022-09-03T01:35:48.450Z,48.55
2022-09-03T01:41:30.277Z,47.97
2022-09-03T01:46:39.633Z,48.23
2022-09-03T01:51:41.986Z,47.85
2022-09-03T01:57:17.282Z,48.59
2022-09-03T02:02:30.890Z,47.88
2022-09-03T02:07:35.555Z,48.02
2022-09-03T02:12:39.049Z,47.63
2022-09-03T02:17:42.811Z,47.50
2022-09-03T02:22:44.430Z,47.56
2022-09-03T02:27:48.352Z,47.59
2022-09-03T02:32:49.947Z,47.73
2022-09-03T02:37:51.705Z,47.82
2022-09-03T02:42:53.486Z,48.01
2022-09-03T02:48:00.634Z,48.43
2022-09-03T02:53:02.536Z,47.47
2022-09-03T02:58:06.923Z,46.96
2022-09-03T03:03:08.544Z,47.21
2022-09-03T03:08:12.341Z,47.37
2022-09-03T03:13:14.377Z,46.98
2022-09-03T03:18:17.513Z,47.79
2022-09-03T03:23:19.524Z,47.76
2022-09-03T03:28:21.183Z,47.47
2022-09-03T03:33:22.849Z,47.79
2022-09-03T03:38:25.330Z,48.33
2022-09-03T03:43:27.117Z,48.23
2022-09-03T03:48:28.732Z,48.56
2022-09-03T03:53:31.144Z,48.31
2022-09-03T03:58:34.141Z,48.48
2022-09-03T04:03:36.505Z,48.05
2022-09-03T04:08:40.015Z,47.72
2022-09-03T04:13:43.575Z,47.78
2022-09-03T04:18:45.379Z,47.75
2022-09-03T04:23:48.398Z,47.71
2022-09-03T04:28:50.198Z,47.70
2022-09-03T04:33:51.792Z,48.64
2022-09-03T04:38:54.882Z,48.62
2022-09-03T04:43:58.574Z,48.21
2022-09-03T04:49:00.348Z,47.94
2022-09-03T04:54:02.410Z,47.99
2022-09-03T04:59:06.859Z,48.16
2022-09-03T05:04:08.567Z,49.02
2022-09-03T05:09:10.197Z,48.80
2022-09-03T05:14:12.748Z,48.02
2022-09-03T05:19:14.603Z,48.34
2022-09-03T05:24:16.275Z,47.97
2022-09-03T05:29:20.010Z,48.97
2022-09-03T05:34:21.620Z,48.40
2022-09-03T05:39:23.289Z,48.18
2022-09-03T05:44:25.024Z,48.16
2022-09-03T05:49:26.968Z,47.47
2022-09-03T05:54:28.658Z,47.57
2022-09-03T05:59:30.367Z,47.59
2022-09-03T06:04:32.559Z,48.13
2022-09-03T06:09:34.956Z,49.41
2022-09-03T06:14:36.588Z,50.81
2022-09-03T06:19:38.790Z,50.02
2022-09-03T06:24:40.399Z,49.38
2022-09-03T06:29:42.020Z,50.53
2022-09-03T06:34:44.139Z,51.10
2022-09-03T06:39:46.583Z,50.89
2022-09-03T06:44:49.040Z,50.33
2022-09-03T06:49:50.637Z,49.82
2022-09-03T06:54:52.270Z,50.24
2022-09-03T06:59:55.525Z,50.07
2022-09-03T07:04:57.260Z,50.54
2022-09-03T07:09:58.914Z,50.96
2022-09-03T07:15:00.541Z,52.25
2022-09-03T07:20:02.237Z,52.58
2022-09-03T07:25:04.107Z,53.12
2022-09-03T07:30:09.757Z,53.36
2022-09-03T07:35:11.379Z,52.31
2022-09-03T07:40:14.038Z,52.91
2022-09-03T07:45:15.725Z,53.89
2022-09-03T07:50:17.461Z,54.91
2022-09-03T07:55:19.080Z,54.94
2022-09-03T08:00:20.828Z,53.83
2022-09-03T08:05:22.489Z,53.24
2022-09-03T08:10:25.051Z,52.62
2022-09-03T08:15:26.803Z,52.57
2022-09-03T08:20:28.412Z,52.92
2022-09-03T08:25:31.931Z,53.74
2022-09-03T08:30:34.894Z,54.28
2022-09-03T08:35:37.620Z,53.78
2022-09-03T08:40:39.317Z,54.52
2022-09-03T08:45:42.328Z,54.98
2022-09-03T08:50:49.475Z,54.45
2022-09-03T08:55:53.906Z,53.77
2022-09-03T09:01:03.746Z,53.52
2022-09-03T09:06:30.311Z,54.36
2022-09-03T09:11:56.024Z,53.40
2022-09-03T09:17:16.225Z,53.22
2022-09-03T09:22:47.289Z,52.65
2022-09-03T09:28:03.927Z,50.62
2022-09-03T09:33:06.170Z,48.43
2022-09-03T09:38:08.094Z,47.60
2022-09-03T09:43:21.579Z,48.18
2022-09-03T09:48:31.792Z,47.77
2022-09-03T09:53:35.080Z,46.81
2022-09-03T09:58:36.825Z,46.01
2022-09-03T10:03:48.032Z,45.39
2022-09-03T10:08:49.633Z,45.76
2022-09-03T10:13:54.779Z,45.87
2022-09-03T10:19:09.360Z,47.07
2022-09-03T10:24:39.574Z,46.91
2022-09-03T10:29:41.847Z,46.11
2022-09-03T10:35:00.774Z,46.86
2022-09-03T10:40:33.293Z,47.49
2022-09-03T10:45:46.709Z,48.36
2022-09-03T10:50:51.728Z,48.33
2022-09-03T10:56:02.221Z,48.17
2022-09-03T11:01:22.767Z,48.17
2022-09-03T11:06:28.509Z,48.60
2022-09-03T11:11:33.417Z,48.44
2022-09-03T11:16:59.889Z,47.28
2022-09-03T11:22:03.142Z,46.80
2022-09-03T11:27:43.765Z,45.84
2022-09-03T11:32:55.671Z,45.93
2022-09-03T11:38:05.863Z,45.36
2022-09-03T11:43:25.266Z,44.60
2022-09-03T11:48:40.807Z,44.47
2022-09-03T11:53:42.476Z,45.26
2022-09-03T11:58:44.516Z,45.73
2022-09-03T12:03:59.360Z,45.07
2022-09-03T12:09:25.659Z,44.67
2022-09-03T12:14:40.793Z,45.30
2022-09-03T12:19:57.834Z,43.28
2022-09-03T12:25:14.035Z,42.44
2022-09-03T12:30:19.045Z,42.19
2022-09-03T12:46:14.698Z,42.39
2022-09-03T12:56:42.378Z,42.16
2022-09-03T13:01:53.181Z,41.80
2022-09-03T13:07:24.226Z,41.86
2022-09-03T13:12:33.559Z,41.68
2022-09-03T13:17:47.285Z,42.19
2022-09-03T13:23:04.207Z,41.84
2022-09-03T13:28:45.561Z,41.52
2022-09-03T13:34:13.568Z,41.29
2022-09-03T13:39:26.882Z,41.67
2022-09-03T13:45:10.055Z,42.14
2022-09-03T13:50:23.832Z,42.06
2022-09-03T13:55:31.493Z,42.35
2022-09-03T14:01:09.360Z,42.67
2022-09-03T14:07:02.247Z,42.07
2022-09-03T14:12:29.021Z,41.87
2022-09-03T14:17:57.647Z,41.30
2022-09-03T14:23:21.009Z,40.95
2022-09-03T14:28:36.137Z,40.89
2022-09-03T14:33:55.903Z,40.26
2022-09-03T14:39:06.487Z,41.33
2022-09-03T14:44:22.269Z,41.16
2022-09-03T14:49:47.155Z,41.23
2022-09-03T14:54:57.449Z,41.38
2022-09-03T14:59:59.034Z,41.35
2022-09-03T15:05:15.470Z,41.29
2022-09-03T15:10:45.049Z,40.95
2022-09-03T15:15:58.493Z,41.69
2022-09-03T15:21:41.449Z,42.02
2022-09-03T15:26:46.041Z,41.60
2022-09-03T15:32:06.138Z,41.65
2022-09-03T15:37:17.622Z,42.13
2022-09-03T15:42:27.420Z,42.22
2022-09-03T15:47:51.895Z,42.35
2022-09-03T15:53:00.358Z,42.81
2022-09-03T15:58:31.384Z,43.18
2022-09-03T16:03:56.083Z,43.11
2022-09-03T16:09:03.282Z,43.20
2022-09-03T16:14:07.954Z,43.43
2022-09-03T16:19:24.202Z,44.09
2022-09-03T16:24:47.059Z,44.19
2022-09-03T16:30:11.957Z,44.63
2022-09-03T16:35:38.778Z,44.71
2022-09-03T16:40:55.893Z,44.98
2022-09-03T16:46:15.778Z,45.30
2022-09-03T16:51:42.041Z,45.41
2022-09-03T16:56:54.418Z,45.58
2022-09-03T17:02:39.305Z,45.80
2022-09-03T17:08:12.697Z,46.12
2022-09-03T17:13:32.302Z,46.14
2022-09-03T17:18:50.750Z,46.92
2022-09-03T17:24:06.342Z,49.60
2022-09-03T17:29:35.935Z,51.99
2022-09-03T17:34:46.518Z,52.13
2022-09-03T17:39:56.114Z,55.38
2022-09-03T17:45:27.873Z,57.90
2022-09-03T17:50:42.174Z,57.61
2022-09-03T17:55:55.295Z,59.02
2022-09-03T18:01:26.187Z,59.95
2022-09-03T18:06:34.917Z,59.76
2022-09-03T18:12:07.761Z,61.33
2022-09-03T18:17:18.199Z,61.81
2022-09-03T18:22:44.292Z,61.83
2022-09-03T18:28:16.956Z,62.79
2022-09-03T18:33:42.198Z,62.41
2022-09-03T18:39:02.722Z,62.48
2022-09-03T18:44:44.502Z,63.00
2022-09-03T18:50:16.554Z,63.67
2022-09-03T18:55:54.399Z,63.58
2022-09-03T19:01:36.150Z,63.96
2022-09-03T19:07:42.217Z,63.86
2022-09-03T19:13:08.463Z,64.76
2022-09-03T19:18:53.227Z,65.28
2022-09-03T19:24:18.986Z,65.25
2022-09-03T19:30:10.287Z,65.36
2022-09-03T19:35:37.924Z,65.86
2022-09-03T19:41:01.387Z,64.75
2022-09-03T19:46:33.320Z,64.98
2022-09-03T19:52:02.615Z,65.54
2022-09-03T19:57:23.160Z,65.16
2022-09-03T20:02:44.411Z,65.38
2022-09-03T20:08:10.773Z,65.89
2022-09-03T20:13:14.936Z,65.57
2022-09-03T20:18:39.371Z,66.29
2022-09-03T20:23:59.606Z,66.19
2022-09-03T20:29:04.211Z,65.75
2022-09-03T20:34:24.783Z,66.26
2022-09-03T20:39:44.903Z,66.35
2022-09-03T20:44:58.598Z,66.16
2022-09-03T20:50:26.061Z,66.48
2022-09-03T20:55:38.341Z,67.31
2022-09-03T21:01:06.603Z,67.78
2022-09-03T21:06:23.205Z,66.96
2022-09-03T21:11:44.751Z,67.34
2022-09-03T21:17:06.555Z,66.87
2022-09-03T21:22:47.752Z,66.94
2022-09-03T21:27:52.716Z,68.35
2022-09-03T21:33:01.487Z,67.35
2022-09-03T21:38:12.722Z,67.44
2022-09-03T21:43:24.291Z,67.18
2022-09-03T21:48:35.782Z,66.79
2022-09-03T21:53:51.310Z,66.85
2022-09-03T21:59:16.249Z,66.79
2022-09-03T22:04:18.178Z,67.04
2022-09-03T22:09:45.371Z,66.73
2022-09-03T22:14:51.711Z,67.17
2022-09-03T22:19:53.345Z,67.20
2022-09-03T22:25:14.045Z,66.87
2022-09-03T22:30:21.709Z,66.55
2022-09-03T22:35:49.410Z,66.81
2022-09-03T22:41:01.623Z,66.96
2022-09-03T22:46:13.432Z,67.07
2022-09-03T22:51:21.066Z,66.91
2022-09-03T22:56:23.774Z,67.10
2022-09-03T23:01:39.414Z,67.13
2022-09-03T23:07:00.172Z,66.69
2022-09-03T23:12:07.154Z,66.81
2022-09-03T23:17:14.233Z,66.64
2022-09-03T23:22:30.008Z,66.71
2022-09-03T23:27:46.432Z,67.28
2022-09-03T23:32:55.320Z,67.19
2022-09-03T23:37:59.613Z,67.49
2022-09-03T23:43:15.397Z,67.78
2022-09-03T23:49:04.431Z,67.66
2022-09-03T23:54:24.619Z,67.67
2022-09-03T23:59:56.995Z,67.89
